sensor_id;sensor_type;location;lat;lon;timestamp;temperature;humidity
8595;DHT22;4335;48.860;9.198;2022-09-11T00:00:48;15.80;99.90
8595;DHT22;4335;48.860;9.198;2022-09-11T00:03:15;15.90;99.90
8595;DHT22;4335;48.860;9.198;2022-09-11T00:05:43;15.90;99.90
8595;DHT22;4335;48.860;9.198;2022-09-11T00:08:13;15.90;99.90
8595;DHT22;4335;48.860;9.198;2022-09-11T00:10:45;15.90;99.90
8595;DHT22;4335;48.860;9.198;2022-09-11T00:13:21;15.90;99.90
8595;DHT22;4335;48.860;9.198;2022-09-11T00:15:50;16.00;99.90
8595;DHT22;4335;48.860;9.198;2022-09-11T00:18:18;15.90;99.90
8595;DHT22;4335;48.860;9.198;2022-09-11T00:20:54;15.90;99.90
8595;DHT22;4335;48.860;9.198;2022-09-11T00:23:23;15.90;99.90
8595;DHT22;4335;48.860;9.198;2022-09-11T00:25:53;15.90;99.90
8595;DHT22;4335;48.860;9.198;2022-09-11T00:28:22;15.80;99.90
8595;DHT22;4335;48.860;9.198;2022-09-11T00:30:56;15.80;99.90
8595;DHT22;4335;48.860;9.198;2022-09-11T00:33:23;15.80;99.90
8595;DHT22;4335;48.860;9.198;2022-09-11T00:35:54;15.80;99.90
8595;DHT22;4335;48.860;9.198;2022-09-11T00:38:26;15.70;99.90
8595;DHT22;4335;48.860;9.198;2022-09-11T00:40:58;15.70;99.90
8595;DHT22;4335;48.860;9.198;2022-09-11T00:43:26;15.70;99.90
8595;DHT22;4335;48.860;9.198;2022-09-11T00:45:55;15.60;99.90
8595;DHT22;4335;48.860;9.198;2022-09-11T00:48:35;15.60;99.90
8595;DHT22;4335;48.860;9.198;2022-09-11T00:51:03;15.60;99.90
8595;DHT22;4335;48.860;9.198;2022-09-11T00:53:32;15.60;99.90
8595;DHT22;4335;48.860;9.198;2022-09-11T00:56:03;15.60;99.90
8595;DHT22;4335;48.860;9.198;2022-09-11T00:58:37;15.50;99.90
8595;DHT22;4335;48.860;9.198;2022-09-11T01:01:05;15.60;99.90
8595;DHT22;4335;48.860;9.198;2022-09-11T01:03:31;15.60;99.90
8595;DHT22;4335;48.860;9.198;2022-09-11T01:05:58;15.60;99.90
8595;DHT22;4335;48.860;9.198;2022-09-11T01:08:28;15.60;99.90
8595;DHT22;4335;48.860;9.198;2022-09-11T01:11:03;15.50;99.90
8595;DHT22;4335;48.860;9.198;2022-09-11T01:13:42;15.50;99.90
8595;DHT22;4335;48.860;9.198;2022-09-11T01:16:18;15.50;99.90
8595;DHT22;4335;48.860;9.198;2022-09-11T01:18:54;15.60;99.90
8595;DHT22;4335;48.860;9.198;2022-09-11T01:24:26;15.60;99.90
8595;DHT22;4335;48.860;9.198;2022-09-11T01:27:23;15.60;99.90
8595;DHT22;4335;48.860;9.198;2022-09-11T01:29:55;15.60;99.90
8595;DHT22;4335;48.860;9.198;2022-09-11T01:32:26;15.60;99.90
8595;DHT22;4335;48.860;9.198;2022-09-11T01:35:00;15.60;99.90
8595;DHT22;4335;48.860;9.198;2022-09-11T01:37:33;15.60;99.90
8595;DHT22;4335;48.860;9.198;2022-09-11T01:40:09;15.50;99.90
8595;DHT22;4335;48.860;9.198;2022-09-11T01:42:42;15.50;99.90
8595;DHT22;4335;48.860;9.198;2022-09-11T01:45:15;15.50;99.90
8595;DHT22;4335;48.860;9.198;2022-09-11T01:47:45;15.40;99.90
8595;DHT22;4335;48.860;9.198;2022-09-11T01:50:15;15.40;99.90
8595;DHT22;4335;48.860;9.198;2022-09-11T01:52:53;15.40;99.90
8595;DHT22;4335;48.860;9.198;2022-09-11T01:55:25;15.40;99.90
8595;DHT22;4335;48.860;9.198;2022-09-11T01:57:57;15.40;99.90
8595;DHT22;4335;48.860;9.198;2022-09-11T02:00:25;15.40;99.90
8595;DHT22;4335;48.860;9.198;2022-09-11T02:02:55;15.50;99.90
8595;DHT22;4335;48.860;9.198;2022-09-11T02:05:29;15.50;99.90
8595;DHT22;4335;48.860;9.198;2022-09-11T02:08:01;15.50;99.90
8595;DHT22;4335;48.860;9.198;2022-09-11T02:10:32;15.60;99.90
8595;DHT22;4335;48.860;9.198;2022-09-11T02:13:04;15.60;99.90
8595;DHT22;4335;48.860;9.198;2022-09-11T02:15:37;15.60;99.90
8595;DHT22;4335;48.860;9.198;2022-09-11T02:18:17;15.70;99.90
8595;DHT22;4335;48.860;9.198;2022-09-11T02:20:48;15.60;99.90
8595;DHT22;4335;48.860;9.198;2022-09-11T02:23:19;15.70;99.90
8595;DHT22;4335;48.860;9.198;2022-09-11T02:25:46;15.70;99.90
8595;DHT22;4335;48.860;9.198;2022-09-11T02:28:14;15.70;99.90
8595;DHT22;4335;48.860;9.198;2022-09-11T02:30:41;15.70;99.90
8595;DHT22;4335;48.860;9.198;2022-09-11T02:33:26;15.70;99.90
8595;DHT22;4335;48.860;9.198;2022-09-11T02:36:04;15.80;99.90
8595;DHT22;4335;48.860;9.198;2022-09-11T02:38:41;15.80;99.90
8595;DHT22;4335;48.860;9.198;2022-09-11T02:41:14;15.80;99.90
8595;DHT22;4335;48.860;9.198;2022-09-11T02:43:54;15.80;99.90
8595;DHT22;4335;48.860;9.198;2022-09-11T02:46:36;15.80;99.90
8595;DHT22;4335;48.860;9.198;2022-09-11T02:49:09;15.80;99.90
8595;DHT22;4335;48.860;9.198;2022-09-11T02:51:48;15.90;99.90
8595;DHT22;4335;48.860;9.198;2022-09-11T02:54:25;15.90;99.90
8595;DHT22;4335;48.860;9.198;2022-09-11T02:56:59;16.00;99.90
8595;DHT22;4335;48.860;9.198;2022-09-11T02:59:31;15.90;99.90
8595;DHT22;4335;48.860;9.198;2022-09-11T03:02:02;15.90;99.90
8595;DHT22;4335;48.860;9.198;2022-09-11T03:04:29;15.90;99.90
8595;DHT22;4335;48.860;9.198;2022-09-11T03:06:57;15.90;99.90
8595;DHT22;4335;48.860;9.198;2022-09-11T03:09:24;15.90;99.90
8595;DHT22;4335;48.860;9.198;2022-09-11T03:11:54;15.90;99.90
8595;DHT22;4335;48.860;9.198;2022-09-11T03:14:21;15.90;99.90
8595;DHT22;4335;48.860;9.198;2022-09-11T03:16:49;15.90;99.90
8595;DHT22;4335;48.860;9.198;2022-09-11T03:19:18;15.90;99.90
8595;DHT22;4335;48.860;9.198;2022-09-11T03:21:45;15.90;99.90
8595;DHT22;4335;48.860;9.198;2022-09-11T03:24:12;15.90;99.90
8595;DHT22;4335;48.860;9.198;2022-09-11T03:26:45;16.00;99.90
8595;DHT22;4335;48.860;9.198;2022-09-11T03:29:12;15.90;99.90
8595;DHT22;4335;48.860;9.198;2022-09-11T03:31:38;15.90;99.90
8595;DHT22;4335;48.860;9.198;2022-09-11T03:34:08;16.00;99.90
8595;DHT22;4335;48.860;9.198;2022-09-11T03:36:35;15.90;99.90
8595;DHT22;4335;48.860;9.198;2022-09-11T03:39:05;16.00;99.90
8595;DHT22;4335;48.860;9.198;2022-09-11T03:41:32;15.90;99.90
8595;DHT22;4335;48.860;9.198;2022-09-11T03:43:58;16.00;99.90
8595;DHT22;4335;48.860;9.198;2022-09-11T03:46:28;15.90;99.90
8595;DHT22;4335;48.860;9.198;2022-09-11T03:48:55;15.90;99.90
8595;DHT22;4335;48.860;9.198;2022-09-11T03:51:22;15.90;99.90
8595;DHT22;4335;48.860;9.198;2022-09-11T03:53:51;15.90;99.90
8595;DHT22;4335;48.860;9.198;2022-09-11T03:56:18;15.90;99.90
8595;DHT22;4335;48.860;9.198;2022-09-11T03:58:48;15.90;99.90
8595;DHT22;4335;48.860;9.198;2022-09-11T04:01:22;15.90;99.90
8595;DHT22;4335;48.860;9.198;2022-09-11T04:03:49;15.90;99.90
8595;DHT22;4335;48.860;9.198;2022-09-11T04:06:16;15.90;99.90
8595;DHT22;4335;48.860;9.198;2022-09-11T04:08:43;15.90;99.90
8595;DHT22;4335;48.860;9.198;2022-09-11T04:11:10;15.90;99.90
8595;DHT22;4335;48.860;9.198;2022-09-11T04:13:45;15.90;99.90
8595;DHT22;4335;48.860;9.198;2022-09-11T04:16:13;15.90;99.90
8595;DHT22;4335;48.860;9.198;2022-09-11T04:18:41;15.90;99.90
8595;DHT22;4335;48.860;9.198;2022-09-11T04:21:13;15.90;99.90
8595;DHT22;4335;48.860;9.198;2022-09-11T04:23:40;15.90;99.90
8595;DHT22;4335;48.860;9.198;2022-09-11T04:26:13;15.90;99.90
8595;DHT22;4335;48.860;9.198;2022-09-11T04:28:46;15.90;99.90
8595;DHT22;4335;48.860;9.198;2022-09-11T04:31:15;15.90;99.90
8595;DHT22;4335;48.860;9.198;2022-09-11T04:33:42;15.90;99.90
8595;DHT22;4335;48.860;9.198;2022-09-11T04:36:13;15.90;99.90
8595;DHT22;4335;48.860;9.198;2022-09-11T04:38:42;15.90;99.90
8595;DHT22;4335;48.860;9.198;2022-09-11T04:41:14;15.90;99.90
8595;DHT22;4335;48.860;9.198;2022-09-11T04:43:41;15.90;99.90
8595;DHT22;4335;48.860;9.198;2022-09-11T04:46:10;15.90;99.90
8595;DHT22;4335;48.860;9.198;2022-09-11T04:48:44;15.90;99.90
8595;DHT22;4335;48.860;9.198;2022-09-11T04:51:19;15.90;99.90
8595;DHT22;4335;48.860;9.198;2022-09-11T04:53:46;15.90;99.90
8595;DHT22;4335;48.860;9.198;2022-09-11T04:56:17;15.90;99.90
8595;DHT22;4335;48.860;9.198;2022-09-11T04:58:50;16.00;99.90
8595;DHT22;4335;48.860;9.198;2022-09-11T05:01:21;16.00;99.90
8595;DHT22;4335;48.860;9.198;2022-09-11T05:03:48;15.90;99.90
8595;DHT22;4335;48.860;9.198;2022-09-11T05:06:15;15.90;99.90
8595;DHT22;4335;48.860;9.198;2022-09-11T05:08:43;15.90;99.90
8595;DHT22;4335;48.860;9.198;2022-09-11T05:11:13;15.90;99.90
8595;DHT22;4335;48.860;9.198;2022-09-11T05:13:44;16.00;99.90
8595;DHT22;4335;48.860;9.198;2022-09-11T05:16:13;16.00;99.90
8595;DHT22;4335;48.860;9.198;2022-09-11T05:18:41;16.00;99.90
8595;DHT22;4335;48.860;9.198;2022-09-11T05:21:12;16.00;99.90
8595;DHT22;4335;48.860;9.198;2022-09-11T05:23:39;16.00;99.90
8595;DHT22;4335;48.860;9.198;2022-09-11T05:26:10;16.10;99.90
8595;DHT22;4335;48.860;9.198;2022-09-11T05:28:38;16.10;99.90
8595;DHT22;4335;48.860;9.198;2022-09-11T05:31:10;16.10;99.90
8595;DHT22;4335;48.860;9.198;2022-09-11T05:33:37;16.10;99.90
8595;DHT22;4335;48.860;9.198;2022-09-11T05:36:05;16.10;99.90
8595;DHT22;4335;48.860;9.198;2022-09-11T05:38:33;16.10;99.90
8595;DHT22;4335;48.860;9.198;2022-09-11T05:41:03;16.10;99.90
8595;DHT22;4335;48.860;9.198;2022-09-11T05:43:31;16.20;99.90
8595;DHT22;4335;48.860;9.198;2022-09-11T05:46:01;16.20;99.90
8595;DHT22;4335;48.860;9.198;2022-09-11T05:48:30;16.20;99.90
8595;DHT22;4335;48.860;9.198;2022-09-11T05:51:04;16.30;99.90
8595;DHT22;4335;48.860;9.198;2022-09-11T05:53:35;16.30;99.90
8595;DHT22;4335;48.860;9.198;2022-09-11T05:56:06;16.30;99.90
8595;DHT22;4335;48.860;9.198;2022-09-11T05:58:33;16.30;99.90
8595;DHT22;4335;48.860;9.198;2022-09-11T06:01:18;16.40;99.90
8595;DHT22;4335;48.860;9.198;2022-09-11T06:03:46;16.40;99.90
8595;DHT22;4335;48.860;9.198;2022-09-11T06:06:13;16.40;99.90
8595;DHT22;4335;48.860;9.198;2022-09-11T06:08:40;16.50;99.90
8595;DHT22;4335;48.860;9.198;2022-09-11T06:11:09;16.50;99.90
8595;DHT22;4335;48.860;9.198;2022-09-11T06:13:38;16.50;99.90
8595;DHT22;4335;48.860;9.198;2022-09-11T06:16:07;16.50;99.90
8595;DHT22;4335;48.860;9.198;2022-09-11T06:18:34;16.60;99.90
8595;DHT22;4335;48.860;9.198;2022-09-11T06:21:12;16.60;99.90
8595;DHT22;4335;48.860;9.198;2022-09-11T06:23:44;16.60;99.90
8595;DHT22;4335;48.860;9.198;2022-09-11T06:26:13;16.60;99.90
8595;DHT22;4335;48.860;9.198;2022-09-11T06:28:40;16.60;99.90
8595;DHT22;4335;48.860;9.198;2022-09-11T06:31:10;16.60;99.90
8595;DHT22;4335;48.860;9.198;2022-09-11T06:33:43;16.60;99.90
8595;DHT22;4335;48.860;9.198;2022-09-11T06:36:12;16.70;99.90
8595;DHT22;4335;48.860;9.198;2022-09-11T06:38:52;16.70;99.90
8595;DHT22;4335;48.860;9.198;2022-09-11T06:41:23;16.70;99.90
8595;DHT22;4335;48.860;9.198;2022-09-11T06:43:51;16.80;99.90
8595;DHT22;4335;48.860;9.198;2022-09-11T06:46:20;16.80;99.90
8595;DHT22;4335;48.860;9.198;2022-09-11T06:48:48;16.80;99.90
8595;DHT22;4335;48.860;9.198;2022-09-11T06:51:18;16.80;99.90
8595;DHT22;4335;48.860;9.198;2022-09-11T06:53:45;16.80;99.90
8595;DHT22;4335;48.860;9.198;2022-09-11T06:56:16;16.80;99.90
8595;DHT22;4335;48.860;9.198;2022-09-11T06:58:43;16.70;99.90
8595;DHT22;4335;48.860;9.198;2022-09-11T07:01:14;16.70;99.90
8595;DHT22;4335;48.860;9.198;2022-09-11T07:03:42;16.80;99.90
8595;DHT22;4335;48.860;9.198;2022-09-11T07:06:10;16.80;99.90
8595;DHT22;4335;48.860;9.198;2022-09-11T07:08:37;16.90;99.90
8595;DHT22;4335;48.860;9.198;2022-09-11T07:11:06;16.90;99.90
8595;DHT22;4335;48.860;9.198;2022-09-11T07:13:33;17.00;99.90
8595;DHT22;4335;48.860;9.198;2022-09-11T07:16:00;17.00;99.90
8595;DHT22;4335;48.860;9.198;2022-09-11T07:18:32;17.10;99.90
8595;DHT22;4335;48.860;9.198;2022-09-11T07:21:04;17.10;99.90
8595;DHT22;4335;48.860;9.198;2022-09-11T07:23:38;17.00;99.90
8595;DHT22;4335;48.860;9.198;2022-09-11T07:26:10;17.00;99.90
8595;DHT22;4335;48.860;9.198;2022-09-11T07:28:38;17.00;99.90
8595;DHT22;4335;48.860;9.198;2022-09-11T07:31:09;17.00;99.90
8595;DHT22;4335;48.860;9.198;2022-09-11T07:33:37;17.00;99.90
8595;DHT22;4335;48.860;9.198;2022-09-11T07:36:07;17.00;99.90
8595;DHT22;4335;48.860;9.198;2022-09-11T07:38:43;17.10;99.90
8595;DHT22;4335;48.860;9.198;2022-09-11T07:41:14;17.20;99.90
8595;DHT22;4335;48.860;9.198;2022-09-11T07:43:42;17.30;99.90
8595;DHT22;4335;48.860;9.198;2022-09-11T07:46:11;17.40;99.90
8595;DHT22;4335;48.860;9.198;2022-09-11T07:48:38;17.50;99.90
8595;DHT22;4335;48.860;9.198;2022-09-11T07:51:08;17.50;99.90
8595;DHT22;4335;48.860;9.198;2022-09-11T07:53:36;17.60;99.90
8595;DHT22;4335;48.860;9.198;2022-09-11T07:56:08;17.70;99.90
8595;DHT22;4335;48.860;9.198;2022-09-11T07:58:36;17.90;99.90
8595;DHT22;4335;48.860;9.198;2022-09-11T08:01:03;18.00;99.90
8595;DHT22;4335;48.860;9.198;2022-09-11T08:03:30;18.00;99.90
8595;DHT22;4335;48.860;9.198;2022-09-11T08:05:57;18.10;99.90
8595;DHT22;4335;48.860;9.198;2022-09-11T08:08:24;18.20;99.90
8595;DHT22;4335;48.860;9.198;2022-09-11T08:10:51;18.30;99.90
8595;DHT22;4335;48.860;9.198;2022-09-11T08:13:20;18.40;99.90
8595;DHT22;4335;48.860;9.198;2022-09-11T08:15:47;18.50;99.90
8595;DHT22;4335;48.860;9.198;2022-09-11T08:18:14;18.90;99.90
8595;DHT22;4335;48.860;9.198;2022-09-11T08:20:44;19.00;99.90
8595;DHT22;4335;48.860;9.198;2022-09-11T08:23:11;19.10;99.90
8595;DHT22;4335;48.860;9.198;2022-09-11T08:25:38;19.00;99.90
8595;DHT22;4335;48.860;9.198;2022-09-11T08:28:05;19.00;99.90
8595;DHT22;4335;48.860;9.198;2022-09-11T08:30:33;19.10;99.90
8595;DHT22;4335;48.860;9.198;2022-09-11T08:33:00;19.50;99.90
8595;DHT22;4335;48.860;9.198;2022-09-11T08:35:27;19.70;99.90
8595;DHT22;4335;48.860;9.198;2022-09-11T08:37:54;20.00;99.90
8595;DHT22;4335;48.860;9.198;2022-09-11T08:40:21;20.00;99.90
8595;DHT22;4335;48.860;9.198;2022-09-11T08:42:48;20.10;99.90
8595;DHT22;4335;48.860;9.198;2022-09-11T08:45:18;20.20;99.90
8595;DHT22;4335;48.860;9.198;2022-09-11T08:47:50;20.40;99.90
8595;DHT22;4335;48.860;9.198;2022-09-11T08:50:21;20.40;99.90
8595;DHT22;4335;48.860;9.198;2022-09-11T08:52:48;20.40;99.90
8595;DHT22;4335;48.860;9.198;2022-09-11T08:55:19;20.30;99.90
8595;DHT22;4335;48.860;9.198;2022-09-11T08:57:56;20.60;99.90
8595;DHT22;4335;48.860;9.198;2022-09-11T09:00:30;21.00;99.90
8595;DHT22;4335;48.860;9.198;2022-09-11T09:03:28;21.10;99.90
8595;DHT22;4335;48.860;9.198;2022-09-11T09:06:18;21.30;99.90
8595;DHT22;4335;48.860;9.198;2022-09-11T09:08:52;21.30;99.90
8595;DHT22;4335;48.860;9.198;2022-09-11T09:11:28;21.50;99.90
8595;DHT22;4335;48.860;9.198;2022-09-11T09:14:12;22.00;99.90
8595;DHT22;4335;48.860;9.198;2022-09-11T09:16:48;23.20;99.90
8595;DHT22;4335;48.860;9.198;2022-09-11T09:19:22;25.20;99.90
8595;DHT22;4335;48.860;9.198;2022-09-11T09:22:02;26.70;99.90
8595;DHT22;4335;48.860;9.198;2022-09-11T09:24:38;26.90;99.90
8595;DHT22;4335;48.860;9.198;2022-09-11T09:27:12;26.20;99.90
8595;DHT22;4335;48.860;9.198;2022-09-11T09:29:41;26.60;99.90
8595;DHT22;4335;48.860;9.198;2022-09-11T09:32:18;27.90;99.90
8595;DHT22;4335;48.860;9.198;2022-09-11T09:35:09;28.20;99.90
8595;DHT22;4335;48.860;9.198;2022-09-11T09:37:41;28.10;99.90
8595;DHT22;4335;48.860;9.198;2022-09-11T09:40:09;27.90;99.90
8595;DHT22;4335;48.860;9.198;2022-09-11T09:43:07;28.10;99.90
8595;DHT22;4335;48.860;9.198;2022-09-11T09:45:49;28.60;99.90
8595;DHT22;4335;48.860;9.198;2022-09-11T09:48:19;28.50;99.90
8595;DHT22;4335;48.860;9.198;2022-09-11T09:50:47;28.10;99.90
8595;DHT22;4335;48.860;9.198;2022-09-11T09:53:23;27.40;99.90
8595;DHT22;4335;48.860;9.198;2022-09-11T09:55:54;28.00;99.90
8595;DHT22;4335;48.860;9.198;2022-09-11T09:58:23;28.60;99.90
8595;DHT22;4335;48.860;9.198;2022-09-11T10:00:57;29.10;99.90
8595;DHT22;4335;48.860;9.198;2022-09-11T10:03:25;29.40;99.10
8595;DHT22;4335;48.860;9.198;2022-09-11T10:05:53;30.30;97.90
8595;DHT22;4335;48.860;9.198;2022-09-11T10:08:33;30.70;96.20
8595;DHT22;4335;48.860;9.198;2022-09-11T10:11:10;30.70;95.50
8595;DHT22;4335;48.860;9.198;2022-09-11T10:13:40;29.70;95.40
8595;DHT22;4335;48.860;9.198;2022-09-11T10:16:18;28.60;96.60
8595;DHT22;4335;48.860;9.198;2022-09-11T10:18:46;27.50;98.40
8595;DHT22;4335;48.860;9.198;2022-09-11T10:21:19;26.30;99.90
8595;DHT22;4335;48.860;9.198;2022-09-11T10:23:56;25.30;99.90
8595;DHT22;4335;48.860;9.198;2022-09-11T10:26:27;24.40;99.90
8595;DHT22;4335;48.860;9.198;2022-09-11T10:29:00;23.90;99.90
8595;DHT22;4335;48.860;9.198;2022-09-11T10:31:30;23.50;99.90
8595;DHT22;4335;48.860;9.198;2022-09-11T10:33:58;23.20;99.90
8595;DHT22;4335;48.860;9.198;2022-09-11T10:36:29;23.00;99.90
8595;DHT22;4335;48.860;9.198;2022-09-11T10:38:58;23.00;99.90
8595;DHT22;4335;48.860;9.198;2022-09-11T10:41:26;23.30;99.90
8595;DHT22;4335;48.860;9.198;2022-09-11T10:43:57;23.60;99.90
8595;DHT22;4335;48.860;9.198;2022-09-11T10:46:32;23.80;99.90
8595;DHT22;4335;48.860;9.198;2022-09-11T10:49:08;24.00;99.90
8595;DHT22;4335;48.860;9.198;2022-09-11T10:52:16;23.90;99.90
8595;DHT22;4335;48.860;9.198;2022-09-11T10:54:52;24.50;99.90
8595;DHT22;4335;48.860;9.198;2022-09-11T10:57:25;24.80;99.90
8595;DHT22;4335;48.860;9.198;2022-09-11T10:59:58;25.00;99.90
8595;DHT22;4335;48.860;9.198;2022-09-11T11:02:35;25.10;99.90
8595;DHT22;4335;48.860;9.198;2022-09-11T11:05:05;24.90;99.90
8595;DHT22;4335;48.860;9.198;2022-09-11T11:10:49;24.50;99.90
8595;DHT22;4335;48.860;9.198;2022-09-11T11:13:33;24.50;99.90
8595;DHT22;4335;48.860;9.198;2022-09-11T11:16:09;24.50;99.90
8595;DHT22;4335;48.860;9.198;2022-09-11T11:18:56;24.50;99.90
8595;DHT22;4335;48.860;9.198;2022-09-11T11:21:36;24.50;99.90
8595;DHT22;4335;48.860;9.198;2022-09-11T11:24:22;24.50;99.90
8595;DHT22;4335;48.860;9.198;2022-09-11T11:27:02;24.50;99.90
8595;DHT22;4335;48.860;9.198;2022-09-11T11:32:50;23.90;99.90
8595;DHT22;4335;48.860;9.198;2022-09-11T11:35:22;23.60;99.90
8595;DHT22;4335;48.860;9.198;2022-09-11T11:37:52;23.40;99.90
8595;DHT22;4335;48.860;9.198;2022-09-11T11:40:25;22.90;99.90
8595;DHT22;4335;48.860;9.198;2022-09-11T11:42:58;22.80;99.90
8595;DHT22;4335;48.860;9.198;2022-09-11T11:45:35;22.80;99.90
8595;DHT22;4335;48.860;9.198;2022-09-11T11:48:11;22.60;99.90
8595;DHT22;4335;48.860;9.198;2022-09-11T11:50:41;22.40;99.90
8595;DHT22;4335;48.860;9.198;2022-09-11T11:53:15;22.30;99.90
8595;DHT22;4335;48.860;9.198;2022-09-11T11:55:48;22.20;99.90
8595;DHT22;4335;48.860;9.198;2022-09-11T11:58:25;21.90;99.90
8595;DHT22;4335;48.860;9.198;2022-09-11T12:00:59;21.90;99.90
8595;DHT22;4335;48.860;9.198;2022-09-11T12:03:30;21.90;99.90
8595;DHT22;4335;48.860;9.198;2022-09-11T12:06:04;22.00;99.90
8595;DHT22;4335;48.860;9.198;2022-09-11T12:08:30;22.20;99.90
8595;DHT22;4335;48.860;9.198;2022-09-11T12:10:59;22.30;99.90
8595;DHT22;4335;48.860;9.198;2022-09-11T12:13:30;22.50;99.90
8595;DHT22;4335;48.860;9.198;2022-09-11T12:16:12;22.60;99.90
8595;DHT22;4335;48.860;9.198;2022-09-11T12:18:41;22.60;99.90
8595;DHT22;4335;48.860;9.198;2022-09-11T12:21:33;22.60;99.90
8595;DHT22;4335;48.860;9.198;2022-09-11T12:24:13;22.60;99.90
8595;DHT22;4335;48.860;9.198;2022-09-11T12:26:41;22.50;99.90
8595;DHT22;4335;48.860;9.198;2022-09-11T12:29:40;22.60;99.90
8595;DHT22;4335;48.860;9.198;2022-09-11T12:38:14;22.20;99.90
8595;DHT22;4335;48.860;9.198;2022-09-11T12:40:49;22.20;99.90
8595;DHT22;4335;48.860;9.198;2022-09-11T12:43:44;22.20;99.90
8595;DHT22;4335;48.860;9.198;2022-09-11T12:49:19;22.10;99.90
8595;DHT22;4335;48.860;9.198;2022-09-11T12:51:51;21.90;99.90
8595;DHT22;4335;48.860;9.198;2022-09-11T12:54:23;21.80;99.90
8595;DHT22;4335;48.860;9.198;2022-09-11T12:57:00;21.80;99.90
8595;DHT22;4335;48.860;9.198;2022-09-11T12:59:33;21.80;99.90
8595;DHT22;4335;48.860;9.198;2022-09-11T13:02:03;21.70;99.90
8595;DHT22;4335;48.860;9.198;2022-09-11T13:04:30;21.60;99.90
8595;DHT22;4335;48.860;9.198;2022-09-11T13:06:59;21.40;99.90
8595;DHT22;4335;48.860;9.198;2022-09-11T13:09:30;21.40;99.90
8595;DHT22;4335;48.860;9.198;2022-09-11T13:12:43;21.30;99.90
8595;DHT22;4335;48.860;9.198;2022-09-11T13:15:34;21.20;99.90
8595;DHT22;4335;48.860;9.198;2022-09-11T13:18:31;21.20;99.90
8595;DHT22;4335;48.860;9.198;2022-09-11T13:21:11;21.30;99.90
8595;DHT22;4335;48.860;9.198;2022-09-11T13:23:41;21.30;99.90
8595;DHT22;4335;48.860;9.198;2022-09-11T13:26:21;21.30;99.90
8595;DHT22;4335;48.860;9.198;2022-09-11T13:28:52;21.30;99.90
8595;DHT22;4335;48.860;9.198;2022-09-11T13:31:26;21.30;99.90
8595;DHT22;4335;48.860;9.198;2022-09-11T13:33:59;21.40;99.90
8595;DHT22;4335;48.860;9.198;2022-09-11T13:36:30;21.40;99.90
8595;DHT22;4335;48.860;9.198;2022-09-11T13:39:02;21.50;99.90
8595;DHT22;4335;48.860;9.198;2022-09-11T13:41:31;21.50;99.90
8595;DHT22;4335;48.860;9.198;2022-09-11T13:44:10;21.60;99.90
8595;DHT22;4335;48.860;9.198;2022-09-11T13:46:48;21.70;99.90
8595;DHT22;4335;48.860;9.198;2022-09-11T13:49:26;21.80;99.90
8595;DHT22;4335;48.860;9.198;2022-09-11T13:51:54;21.70;99.90
8595;DHT22;4335;48.860;9.198;2022-09-11T13:54:28;21.60;99.90
8595;DHT22;4335;48.860;9.198;2022-09-11T13:57:14;21.60;99.90
8595;DHT22;4335;48.860;9.198;2022-09-11T13:59:46;21.60;99.90
8595;DHT22;4335;48.860;9.198;2022-09-11T14:05:12;21.80;99.90
8595;DHT22;4335;48.860;9.198;2022-09-11T14:07:48;21.90;99.90
8595;DHT22;4335;48.860;9.198;2022-09-11T14:10:31;22.00;99.90
8595;DHT22;4335;48.860;9.198;2022-09-11T14:13:03;22.10;99.90
8595;DHT22;4335;48.860;9.198;2022-09-11T14:15:40;22.20;99.90
8595;DHT22;4335;48.860;9.198;2022-09-11T14:18:14;22.30;99.90
8595;DHT22;4335;48.860;9.198;2022-09-11T14:20:44;22.10;99.90
8595;DHT22;4335;48.860;9.198;2022-09-11T14:23:16;22.20;99.90
8595;DHT22;4335;48.860;9.198;2022-09-11T14:26:02;22.30;99.90
8595;DHT22;4335;48.860;9.198;2022-09-11T14:28:35;22.30;99.90
8595;DHT22;4335;48.860;9.198;2022-09-11T14:31:09;22.20;99.90
8595;DHT22;4335;48.860;9.198;2022-09-11T14:33:37;22.20;99.90
8595;DHT22;4335;48.860;9.198;2022-09-11T14:36:08;22.20;99.90
8595;DHT22;4335;48.860;9.198;2022-09-11T14:38:44;22.20;99.90
8595;DHT22;4335;48.860;9.198;2022-09-11T14:41:12;22.30;99.90
8595;DHT22;4335;48.860;9.198;2022-09-11T14:43:39;22.20;99.90
8595;DHT22;4335;48.860;9.198;2022-09-11T14:46:08;22.00;99.90
8595;DHT22;4335;48.860;9.198;2022-09-11T14:48:35;22.10;99.90
8595;DHT22;4335;48.860;9.198;2022-09-11T14:51:06;22.00;99.90
8595;DHT22;4335;48.860;9.198;2022-09-11T14:53:33;22.00;99.90
8595;DHT22;4335;48.860;9.198;2022-09-11T14:56:03;22.00;99.90
8595;DHT22;4335;48.860;9.198;2022-09-11T14:58:30;22.10;99.90
8595;DHT22;4335;48.860;9.198;2022-09-11T15:00:57;22.00;99.90
8595;DHT22;4335;48.860;9.198;2022-09-11T15:03:24;22.00;99.90
8595;DHT22;4335;48.860;9.198;2022-09-11T15:05:55;22.00;99.90
8595;DHT22;4335;48.860;9.198;2022-09-11T15:08:24;22.00;99.90
8595;DHT22;4335;48.860;9.198;2022-09-11T15:10:51;22.00;99.90
8595;DHT22;4335;48.860;9.198;2022-09-11T15:13:19;22.10;99.90
8595;DHT22;4335;48.860;9.198;2022-09-11T15:15:46;22.10;99.90
8595;DHT22;4335;48.860;9.198;2022-09-11T15:18:13;22.10;99.90
8595;DHT22;4335;48.860;9.198;2022-09-11T15:20:40;22.10;99.90
8595;DHT22;4335;48.860;9.198;2022-09-11T15:23:06;22.30;99.90
8595;DHT22;4335;48.860;9.198;2022-09-11T15:25:34;22.40;99.90
8595;DHT22;4335;48.860;9.198;2022-09-11T15:28:00;22.40;99.90
8595;DHT22;4335;48.860;9.198;2022-09-11T15:30:27;22.30;99.90
8595;DHT22;4335;48.860;9.198;2022-09-11T15:32:54;22.40;99.90
8595;DHT22;4335;48.860;9.198;2022-09-11T15:35:21;22.50;99.90
8595;DHT22;4335;48.860;9.198;2022-09-11T15:37:48;22.40;99.90
8595;DHT22;4335;48.860;9.198;2022-09-11T15:40:14;22.30;99.90
8595;DHT22;4335;48.860;9.198;2022-09-11T15:42:42;22.20;99.90
8595;DHT22;4335;48.860;9.198;2022-09-11T15:45:09;22.20;99.90
8595;DHT22;4335;48.860;9.198;2022-09-11T15:47:40;22.20;99.90
8595;DHT22;4335;48.860;9.198;2022-09-11T15:50:07;22.20;99.90
8595;DHT22;4335;48.860;9.198;2022-09-11T15:52:35;22.20;99.90
8595;DHT22;4335;48.860;9.198;2022-09-11T15:55:06;22.10;99.90
8595;DHT22;4335;48.860;9.198;2022-09-11T15:57:33;22.10;99.90
8595;DHT22;4335;48.860;9.198;2022-09-11T16:00:02;22.10;99.90
8595;DHT22;4335;48.860;9.198;2022-09-11T16:02:29;22.10;99.90
8595;DHT22;4335;48.860;9.198;2022-09-11T16:05:01;22.10;99.90
8595;DHT22;4335;48.860;9.198;2022-09-11T16:07:31;22.20;99.90
8595;DHT22;4335;48.860;9.198;2022-09-11T16:09:57;22.20;99.90
8595;DHT22;4335;48.860;9.198;2022-09-11T16:12:30;22.20;99.90
8595;DHT22;4335;48.860;9.198;2022-09-11T16:14:58;22.10;99.90
8595;DHT22;4335;48.860;9.198;2022-09-11T16:17:25;22.10;99.90
8595;DHT22;4335;48.860;9.198;2022-09-11T16:19:56;22.00;99.90
8595;DHT22;4335;48.860;9.198;2022-09-11T16:22:22;21.90;99.90
8595;DHT22;4335;48.860;9.198;2022-09-11T16:24:50;21.90;99.90
8595;DHT22;4335;48.860;9.198;2022-09-11T16:27:17;21.80;99.90
8595;DHT22;4335;48.860;9.198;2022-09-11T16:29:44;21.70;99.90
8595;DHT22;4335;48.860;9.198;2022-09-11T16:32:11;21.60;99.90
8595;DHT22;4335;48.860;9.198;2022-09-11T16:34:38;21.40;99.90
8595;DHT22;4335;48.860;9.198;2022-09-11T16:37:06;21.40;99.90
8595;DHT22;4335;48.860;9.198;2022-09-11T16:39:32;21.30;99.90
8595;DHT22;4335;48.860;9.198;2022-09-11T16:41:59;21.20;99.90
8595;DHT22;4335;48.860;9.198;2022-09-11T16:44:27;21.10;99.90
8595;DHT22;4335;48.860;9.198;2022-09-11T16:46:57;21.10;99.90
8595;DHT22;4335;48.860;9.198;2022-09-11T16:49:23;21.00;99.90
8595;DHT22;4335;48.860;9.198;2022-09-11T16:51:57;21.00;99.90